sensor_id;sensor_type;location;lat;lon;timestamp;pressure;altitude;pressure_sealevel;temperature;humidity
28310;BME280;15571;50.974;13.936;2023-03-15T00:00:43;99435.59;;;3.83;100.00
28310;BME280;15571;50.974;13.936;2023-03-15T00:03:46;99441.63;;;3.79;100.00
28310;BME280;15571;50.974;13.936;2023-03-15T00:06:48;99449.31;;;3.73;100.00
28310;BME280;15571;50.974;13.936;2023-03-15T00:09:52;99458.75;;;3.68;100.00
28310;BME280;15571;50.974;13.936;2023-03-15T00:12:56;99455.25;;;3.63;100.00
28310;BME280;15571;50.974;13.936;2023-03-15T00:15:59;99453.50;;;3.58;100.00
28310;BME280;15571;50.974;13.936;2023-03-15T00:19:02;99460.31;;;3.53;100.00
28310;BME280;15571;50.974;13.936;2023-03-15T00:22:05;99472.34;;;3.48;100.00
28310;BME280;15571;50.974;13.936;2023-03-15T00:25:08;99463.66;;;3.43;100.00
28310;BME280;15571;50.974;13.936;2023-03-15T00:28:14;99477.47;;;3.42;100.00
28310;BME280;15571;50.974;13.936;2023-03-15T00:31:20;99477.44;;;3.39;100.00
28310;BME280;15571;50.974;13.936;2023-03-15T00:34:28;99482.56;;;3.36;100.00
28310;BME280;15571;50.974;13.936;2023-03-15T00:37:33;99480.75;;;3.30;100.00
28310;BME280;15571;50.974;13.936;2023-03-15T00:40:35;99479.84;;;3.25;100.00
28310;BME280;15571;50.974;13.936;2023-03-15T00:43:39;99478.94;;;3.21;100.00
28310;BME280;15571;50.974;13.936;2023-03-15T00:46:41;99478.88;;;3.17;100.00
28310;BME280;15571;50.974;13.936;2023-03-15T00:49:44;99478.00;;;3.13;100.00
28310;BME280;15571;50.974;13.936;2023-03-15T00:52:47;99482.22;;;3.08;100.00
28310;BME280;15571;50.974;13.936;2023-03-15T00:55:51;99489.00;;;3.00;100.00
28310;BME280;15571;50.974;13.936;2023-03-15T00:59:01;99488.13;;;2.98;100.00
28310;BME280;15571;50.974;13.936;2023-03-15T01:02:05;99492.44;;;2.99;100.00
28310;BME280;15571;50.974;13.936;2023-03-15T01:05:07;99501.94;;;2.98;100.00
28310;BME280;15571;50.974;13.936;2023-03-15T01:08:09;99503.63;;;2.96;100.00
28310;BME280;15571;50.974;13.936;2023-03-15T01:11:15;99507.03;;;2.95;100.00
28310;BME280;15571;50.974;13.936;2023-03-15T01:14:21;99515.66;;;2.95;100.00
28310;BME280;15571;50.974;13.936;2023-03-15T01:17:29;99513.91;;;2.93;100.00
28310;BME280;15571;50.974;13.936;2023-03-15T01:20:35;99515.59;;;2.89;100.00
28310;BME280;15571;50.974;13.936;2023-03-15T01:23:38;99514.69;;;2.87;100.00
28310;BME280;15571;50.974;13.936;2023-03-15T01:26:42;99524.13;;;2.84;100.00
28310;BME280;15571;50.974;13.936;2023-03-15T01:29:46;99523.25;;;2.83;100.00
28310;BME280;15571;50.974;13.936;2023-03-15T01:32:50;99518.03;;;2.80;100.00
28310;BME280;15571;50.974;13.936;2023-03-15T01:35:57;99520.56;;;2.77;100.00
28310;BME280;15571;50.974;13.936;2023-03-15T01:39:02;99526.56;;;2.76;100.00
28310;BME280;15571;50.974;13.936;2023-03-15T01:42:19;99528.25;;;2.71;100.00
28310;BME280;15571;50.974;13.936;2023-03-15T01:48:48;99533.34;;;2.66;100.00
28310;BME280;15571;50.974;13.936;2023-03-15T01:51:58;99532.44;;;2.65;100.00
28310;BME280;15571;50.974;13.936;2023-03-15T01:55:19;99530.75;;;2.64;100.00
28310;BME280;15571;50.974;13.936;2023-03-15T01:58:38;99527.28;;;2.64;100.00
28310;BME280;15571;50.974;13.936;2023-03-15T02:01:42;99529.84;;;2.62;100.00
28310;BME280;15571;50.974;13.936;2023-03-15T02:04:49;99535.00;;;2.62;100.00
28310;BME280;15571;50.974;13.936;2023-03-15T02:07:55;99535.84;;;2.61;100.00
28310;BME280;15571;50.974;13.936;2023-03-15T02:11:01;99535.81;;;2.60;100.00
28310;BME280;15571;50.974;13.936;2023-03-15T02:14:09;99534.94;;;2.59;100.00
28310;BME280;15571;50.974;13.936;2023-03-15T02:17:16;99537.53;;;2.58;100.00
28310;BME280;15571;50.974;13.936;2023-03-15T02:20:29;99546.13;;;2.57;100.00
28310;BME280;15571;50.974;13.936;2023-03-15T02:23:35;99543.47;;;2.54;100.00
28310;BME280;15571;50.974;13.936;2023-03-15T02:26:40;99549.47;;;2.53;100.00
28310;BME280;15571;50.974;13.936;2023-03-15T02:29:48;99551.13;;;2.47;100.00
28310;BME280;15571;50.974;13.936;2023-03-15T02:32:54;99555.41;;;2.47;100.00
28310;BME280;15571;50.974;13.936;2023-03-15T02:36:06;99563.97;;;2.43;100.00
28310;BME280;15571;50.974;13.936;2023-03-15T02:39:15;99558.75;;;2.40;100.00
28310;BME280;15571;50.974;13.936;2023-03-15T02:42:18;99564.75;;;2.39;100.00
28310;BME280;15571;50.974;13.936;2023-03-15T02:45:24;99574.19;;;2.37;100.00
28310;BME280;15571;50.974;13.936;2023-03-15T02:48:34;99581.06;;;2.35;100.00
28310;BME280;15571;50.974;13.936;2023-03-15T02:51:37;99587.91;;;2.32;100.00
28310;BME280;15571;50.974;13.936;2023-03-15T02:54:42;99589.59;;;2.30;100.00
28310;BME280;15571;50.974;13.936;2023-03-15T02:57:44;99589.56;;;2.29;100.00
28310;BME280;15571;50.974;13.936;2023-03-15T03:00:51;99588.69;;;2.28;100.00
28310;BME280;15571;50.974;13.936;2023-03-15T03:03:59;99587.78;;;2.26;100.00
28310;BME280;15571;50.974;13.936;2023-03-15T03:07:03;99592.91;;;2.23;100.00
28310;BME280;15571;50.974;13.936;2023-03-15T03:10:18;99593.69;;;2.21;100.00
28310;BME280;15571;50.974;13.936;2023-03-15T03:13:33;99595.34;;;2.15;100.00
28310;BME280;15571;50.974;13.936;2023-03-15T03:16:39;99595.31;;;2.14;100.00
28310;BME280;15571;50.974;13.936;2023-03-15T03:19:42;99597.91;;;2.14;100.00
28310;BME280;15571;50.974;13.936;2023-03-15T03:22:45;99606.50;;;2.13;100.00
28310;BME280;15571;50.974;13.936;2023-03-15T03:25:51;99618.56;;;2.14;100.00
28310;BME280;15571;50.974;13.936;2023-03-15T03:28:53;99622.00;;;2.16;100.00
28310;BME280;15571;50.974;13.936;2023-03-15T03:32:11;99634.06;;;2.14;100.00
28310;BME280;15571;50.974;13.936;2023-03-15T03:35:16;99646.06;;;2.12;100.00
28310;BME280;15571;50.974;13.936;2023-03-15T03:38:21;99646.78;;;2.05;100.00
28310;BME280;15571;50.974;13.936;2023-03-15T03:41:29;99644.91;;;1.97;100.00
28310;BME280;15571;50.974;13.936;2023-03-15T03:44:33;99649.03;;;1.89;100.00
28310;BME280;15571;50.974;13.936;2023-03-15T03:47:40;99653.34;;;1.89;100.00
28310;BME280;15571;50.974;13.936;2023-03-15T03:50:53;99667.00;;;1.84;100.00
28310;BME280;15571;50.974;13.936;2023-03-15T03:53:56;99664.41;;;1.83;100.00
28310;BME280;15571;50.974;13.936;2023-03-15T03:56:59;99669.56;;;1.83;100.00
28310;BME280;15571;50.974;13.936;2023-03-15T04:00:10;99662.66;;;1.82;100.00
28310;BME280;15571;50.974;13.936;2023-03-15T04:03:20;99664.41;;;1.83;100.00
28310;BME280;15571;50.974;13.936;2023-03-15T04:06:29;99656.69;;;1.84;100.00
28310;BME280;15571;50.974;13.936;2023-03-15T04:09:32;99675.59;;;1.83;100.00
28310;BME280;15571;50.974;13.936;2023-03-15T04:12:40;99665.22;;;1.80;100.00
28310;BME280;15571;50.974;13.936;2023-03-15T04:15:44;99678.13;;;1.80;100.00
28310;BME280;15571;50.974;13.936;2023-03-15T04:18:49;99678.06;;;1.79;100.00
28310;BME280;15571;50.974;13.936;2023-03-15T04:21:56;99677.13;;;1.74;100.00
28310;BME280;15571;50.974;13.936;2023-03-15T04:25:38;99695.19;;;1.74;100.00
28310;BME280;15571;50.974;13.936;2023-03-15T04:28:57;99695.09;;;1.70;100.00
28310;BME280;15571;50.974;13.936;2023-03-15T04:32:05;99707.09;;;1.68;100.00
28310;BME280;15571;50.974;13.936;2023-03-15T04:35:29;99709.69;;;1.68;100.00
28310;BME280;15571;50.974;13.936;2023-03-15T04:38:52;99721.72;;;1.68;100.00
28310;BME280;15571;50.974;13.936;2023-03-15T04:42:36;99731.88;;;1.62;100.00
28310;BME280;15571;50.974;13.936;2023-03-15T04:46:00;99735.34;;;1.61;100.00
28310;BME280;15571;50.974;13.936;2023-03-15T04:49:18;99736.09;;;1.58;100.00
28310;BME280;15571;50.974;13.936;2023-03-15T04:52:42;99749.84;;;1.57;100.00
28310;BME280;15571;50.974;13.936;2023-03-15T04:56:09;99755.81;;;1.54;100.00
28310;BME280;15571;50.974;13.936;2023-03-15T04:59:33;99754.94;;;1.54;100.00
28310;BME280;15571;50.974;13.936;2023-03-15T05:02:55;99761.81;;;1.53;100.00
28310;BME280;15571;50.974;13.936;2023-03-15T05:06:18;99765.19;;;1.51;100.00
28310;BME280;15571;50.974;13.936;2023-03-15T05:09:41;99765.19;;;1.51;100.00
28310;BME280;15571;50.974;13.936;2023-03-15T05:13:06;99769.44;;;1.49;100.00
28310;BME280;15571;50.974;13.936;2023-03-15T05:16:19;99770.25;;;1.48;100.00
28310;BME280;15571;50.974;13.936;2023-03-15T05:19:42;99773.75;;;1.50;100.00
28310;BME280;15571;50.974;13.936;2023-03-15T05:23:21;99788.31;;;1.48;100.00
28310;BME280;15571;50.974;13.936;2023-03-15T05:26:43;99798.69;;;1.49;100.00
28310;BME280;15571;50.974;13.936;2023-03-15T05:29:59;99795.19;;;1.47;100.00
28310;BME280;15571;50.974;13.936;2023-03-15T05:33:14;99804.66;;;1.47;100.00
28310;BME280;15571;50.974;13.936;2023-03-15T05:36:49;99799.41;;;1.44;100.00
28310;BME280;15571;50.974;13.936;2023-03-15T05:40:24;99812.41;;;1.47;100.00
28310;BME280;15571;50.974;13.936;2023-03-15T05:43:49;99814.06;;;1.45;100.00
28310;BME280;15571;50.974;13.936;2023-03-15T05:47:12;99818.31;;;1.43;100.00
28310;BME280;15571;50.974;13.936;2023-03-15T05:50:33;99828.63;;;1.43;100.00
28310;BME280;15571;50.974;13.936;2023-03-15T05:53:54;99826.88;;;1.42;100.00
28310;BME280;15571;50.974;13.936;2023-03-15T06:00:34;99846.66;;;1.41;100.00
28310;BME280;15571;50.974;13.936;2023-03-15T06:03:46;99851.00;;;1.44;100.00
28310;BME280;15571;50.974;13.936;2023-03-15T06:07:06;99850.19;;;1.46;100.00
28310;BME280;15571;50.974;13.936;2023-03-15T06:10:11;99865.69;;;1.46;100.00
28310;BME280;15571;50.974;13.936;2023-03-15T06:13:16;99872.59;;;1.47;100.00
28310;BME280;15571;50.974;13.936;2023-03-15T06:16:21;99876.00;;;1.46;100.00
28310;BME280;15571;50.974;13.936;2023-03-15T06:19:27;99883.75;;;1.48;100.00
28310;BME280;15571;50.974;13.936;2023-03-15T06:22:32;99883.03;;;1.52;100.00
28310;BME280;15571;50.974;13.936;2023-03-15T06:25:43;99885.69;;;1.55;100.00
28310;BME280;15571;50.974;13.936;2023-03-15T06:28:49;99895.22;;;1.59;100.00
28310;BME280;15571;50.974;13.936;2023-03-15T06:31:53;99899.66;;;1.63;100.00
28310;BME280;15571;50.974;13.936;2023-03-15T06:34:59;99894.56;;;1.66;100.00
28310;BME280;15571;50.974;13.936;2023-03-15T06:38:05;99898.09;;;1.70;100.00
28310;BME280;15571;50.974;13.936;2023-03-15T06:41:11;99910.19;;;1.73;100.00
28310;BME280;15571;50.974;13.936;2023-03-15T06:44:15;99919.75;;;1.77;100.00
28310;BME280;15571;50.974;13.936;2023-03-15T06:47:22;99918.16;;;1.80;100.00
28310;BME280;15571;50.974;13.936;2023-03-15T06:50:29;99926.00;;;1.85;100.00
28310;BME280;15571;50.974;13.936;2023-03-15T06:53:34;99924.41;;;1.90;100.00
28310;BME280;15571;50.974;13.936;2023-03-15T06:56:36;99921.06;;;1.94;100.00
28310;BME280;15571;50.974;13.936;2023-03-15T06:59:40;99924.63;;;1.99;100.00
28310;BME280;15571;50.974;13.936;2023-03-15T07:02:48;99926.47;;;2.05;100.00
28310;BME280;15571;50.974;13.936;2023-03-15T07:05:52;99931.78;;;2.11;100.00
28310;BME280;15571;50.974;13.936;2023-03-15T07:08:55;99930.22;;;2.18;100.00
28310;BME280;15571;50.974;13.936;2023-03-15T07:11:59;99923.47;;;2.23;100.00
28310;BME280;15571;50.974;13.936;2023-03-15T07:15:01;99933.94;;;2.29;100.00
28310;BME280;15571;50.974;13.936;2023-03-15T07:18:07;99925.44;;;2.33;100.00
28310;BME280;15571;50.974;13.936;2023-03-15T07:21:09;99926.38;;;2.37;100.00
28310;BME280;15571;50.974;13.936;2023-03-15T07:24:12;99929.94;;;2.42;100.00
28310;BME280;15571;50.974;13.936;2023-03-15T07:27:17;99924.81;;;2.44;100.00
28310;BME280;15571;50.974;13.936;2023-03-15T07:30:24;99927.53;;;2.52;100.00
28310;BME280;15571;50.974;13.936;2023-03-15T07:33:29;99923.38;;;2.57;100.00
28310;BME280;15571;50.974;13.936;2023-03-15T07:36:33;99931.25;;;2.63;100.00
28310;BME280;15571;50.974;13.936;2023-03-15T07:39:38;99933.09;;;2.69;100.00
28310;BME280;15571;50.974;13.936;2023-03-15T07:42:42;99933.19;;;2.72;100.00
28310;BME280;15571;50.974;13.936;2023-03-15T07:45:47;99941.06;;;2.79;100.00
28310;BME280;15571;50.974;13.936;2023-03-15T07:48:55;99946.41;;;2.86;100.00
28310;BME280;15571;50.974;13.936;2023-03-15T07:52:00;99947.44;;;2.95;100.00
28310;BME280;15571;50.974;13.936;2023-03-15T07:55:06;99948.44;;;3.02;100.00
28310;BME280;15571;50.974;13.936;2023-03-15T07:58:18;99946.03;;;3.10;100.00
28310;BME280;15571;50.974;13.936;2023-03-15T08:01:23;99948.63;;;3.11;100.00
28310;BME280;15571;50.974;13.936;2023-03-15T08:04:26;99938.53;;;3.24;100.00
28310;BME280;15571;50.974;13.936;2023-03-15T08:07:30;99940.47;;;3.33;100.00
28310;BME280;15571;50.974;13.936;2023-03-15T08:10:42;99935.31;;;3.36;100.00
28310;BME280;15571;50.974;13.936;2023-03-15T08:13:47;99941.50;;;3.44;100.00
28310;BME280;15571;50.974;13.936;2023-03-15T08:16:54;99935.56;;;3.50;100.00
28310;BME280;15571;50.974;13.936;2023-03-15T08:19:58;99940.00;;;3.55;100.00
28310;BME280;15571;50.974;13.936;2023-03-15T08:23:05;99944.34;;;3.56;100.00
28310;BME280;15571;50.974;13.936;2023-03-15T08:26:09;99954.00;;;3.67;100.00
28310;BME280;15571;50.974;13.936;2023-03-15T08:29:15;99950.69;;;3.74;100.00
28310;BME280;15571;50.974;13.936;2023-03-15T08:32:24;99950.81;;;3.82;100.00
28310;BME280;15571;50.974;13.936;2023-03-15T08:35:27;99956.97;;;3.87;100.00
28310;BME280;15571;50.974;13.936;2023-03-15T08:38:33;99945.03;;;3.97;100.00
28310;BME280;15571;50.974;13.936;2023-03-15T08:41:36;99946.94;;;4.05;100.00
28310;BME280;15571;50.974;13.936;2023-03-15T08:44:41;99949.63;;;4.13;100.00
28310;BME280;15571;50.974;13.936;2023-03-15T08:47:45;99955.00;;;4.26;100.00
28310;BME280;15571;50.974;13.936;2023-03-15T08:50:49;99956.84;;;4.33;100.00
28310;BME280;15571;50.974;13.936;2023-03-15T08:53:57;99951.00;;;4.45;100.00
28310;BME280;15571;50.974;13.936;2023-03-15T08:57:04;99955.41;;;4.50;100.00
28310;BME280;15571;50.974;13.936;2023-03-15T09:00:12;99965.00;;;4.58;100.00
28310;BME280;15571;50.974;13.936;2023-03-15T09:03:20;99972.78;;;4.58;100.00
28310;BME280;15571;50.974;13.936;2023-03-15T09:06:26;99971.03;;;4.57;100.00
28310;BME280;15571;50.974;13.936;2023-03-15T09:09:34;99984.84;;;4.56;100.00
28310;BME280;15571;50.974;13.936;2023-03-15T09:12:38;99988.34;;;4.58;100.00
28310;BME280;15571;50.974;13.936;2023-03-15T09:15:44;99989.94;;;4.49;100.00
28310;BME280;15571;50.974;13.936;2023-03-15T09:18:48;99996.66;;;4.38;100.00
28310;BME280;15571;50.974;13.936;2023-03-15T09:21:51;100014.66;;;4.29;100.00
28310;BME280;15571;50.974;13.936;2023-03-15T09:24:55;100032.56;;;4.15;100.00
28310;BME280;15571;50.974;13.936;2023-03-15T09:28:00;100046.03;;;3.95;100.00
28310;BME280;15571;50.974;13.936;2023-03-15T09:31:07;100066.16;;;3.66;100.00
28310;BME280;15571;50.974;13.936;2023-03-15T09:34:12;100061.72;;;3.60;100.00
28310;BME280;15571;50.974;13.936;2023-03-15T09:37:29;100064.13;;;3.49;100.00
28310;BME280;15571;50.974;13.936;2023-03-15T09:40:32;100058.88;;;3.46;100.00
28310;BME280;15571;50.974;13.936;2023-03-15T09:46:56;100064.22;;;3.55;100.00
28310;BME280;15571;50.974;13.936;2023-03-15T09:50:03;100060.03;;;3.61;100.00
28310;BME280;15571;50.974;13.936;2023-03-15T09:53:09;100063.63;;;3.67;100.00
28310;BME280;15571;50.974;13.936;2023-03-15T09:56:17;100057.63;;;3.70;100.00
28310;BME280;15571;50.974;13.936;2023-03-15T09:59:22;100056.91;;;3.77;100.00
28310;BME280;15571;50.974;13.936;2023-03-15T10:02:28;100059.59;;;3.83;100.00
28310;BME280;15571;50.974;13.936;2023-03-15T10:05:39;100060.50;;;3.84;100.00
28310;BME280;15571;50.974;13.936;2023-03-15T10:08:43;100059.72;;;3.89;100.00
28310;BME280;15571;50.974;13.936;2023-03-15T10:11:49;100068.34;;;3.88;100.00
28310;BME280;15571;50.974;13.936;2023-03-15T10:15:09;100064.06;;;3.91;100.00
28310;BME280;15571;50.974;13.936;2023-03-15T10:18:22;100064.78;;;3.83;100.00
28310;BME280;15571;50.974;13.936;2023-03-15T10:21:32;100056.06;;;3.78;100.00
28310;BME280;15571;50.974;13.936;2023-03-15T10:24:55;100067.19;;;3.74;100.00
28310;BME280;15571;50.974;13.936;2023-03-15T10:28:08;100073.09;;;3.67;100.00
28310;BME280;15571;50.974;13.936;2023-03-15T10:31:13;100072.25;;;3.68;100.00
28310;BME280;15571;50.974;13.936;2023-03-15T10:34:17;100065.41;;;3.70;100.00
28310;BME280;15571;50.974;13.936;2023-03-15T10:37:23;100068.09;;;3.76;100.00
28310;BME280;15571;50.974;13.936;2023-03-15T10:40:44;100072.44;;;3.79;100.00
28310;BME280;15571;50.974;13.936;2023-03-15T10:43:54;100064.78;;;3.83;100.00
28310;BME280;15571;50.974;13.936;2023-03-15T10:47:01;100064.03;;;3.89;100.00
28310;BME280;15571;50.974;13.936;2023-03-15T10:50:09;100063.28;;;3.95;100.00
28310;BME280;15571;50.974;13.936;2023-03-15T10:53:15;100066.84;;;4.00;100.00
28310;BME280;15571;50.974;13.936;2023-03-15T10:56:23;100066.09;;;4.07;100.00
28310;BME280;15571;50.974;13.936;2023-03-15T10:59:33;100073.09;;;4.11;100.00
28310;BME280;15571;50.974;13.936;2023-03-15T11:02:41;100071.38;;;4.13;100.00
28310;BME280;15571;50.974;13.936;2023-03-15T11:05:50;100073.13;;;4.14;100.00
28310;BME280;15571;50.974;13.936;2023-03-15T11:09:06;100077.53;;;4.18;100.00
28310;BME280;15571;50.974;13.936;2023-03-15T11:12:14;100074.94;;;4.18;100.00
28310;BME280;15571;50.974;13.936;2023-03-15T11:15:17;100081.06;;;4.24;100.00
28310;BME280;15571;50.974;13.936;2023-03-15T11:18:28;100080.28;;;4.28;100.00
28310;BME280;15571;50.974;13.936;2023-03-15T11:21:31;100088.97;;;4.31;100.00
28310;BME280;15571;50.974;13.936;2023-03-15T11:24:40;100076.19;;;4.42;100.00
28310;BME280;15571;50.974;13.936;2023-03-15T11:27:48;100077.25;;;4.54;100.00
28310;BME280;15571;50.974;13.936;2023-03-15T11:31:03;100078.22;;;4.59;100.00
28310;BME280;15571;50.974;13.936;2023-03-15T11:34:10;100075.78;;;4.68;100.00
28310;BME280;15571;50.974;13.936;2023-03-15T11:37:15;100078.41;;;4.71;100.00
28310;BME280;15571;50.974;13.936;2023-03-15T11:40:30;100060.31;;;4.74;100.00
28310;BME280;15571;50.974;13.936;2023-03-15T11:43:37;100065.56;;;4.79;100.00
28310;BME280;15571;50.974;13.936;2023-03-15T11:46:46;100067.38;;;4.85;100.00
28310;BME280;15571;50.974;13.936;2023-03-15T11:49:50;100075.25;;;4.91;100.00
28310;BME280;15571;50.974;13.936;2023-03-15T11:52:54;100067.47;;;4.91;100.00
28310;BME280;15571;50.974;13.936;2023-03-15T11:56:18;100069.19;;;4.90;100.00
28310;BME280;15571;50.974;13.936;2023-03-15T11:59:28;100064.78;;;4.85;100.00
28310;BME280;15571;50.974;13.936;2023-03-15T12:02:35;100062.34;;;4.95;100.00
28310;BME280;15571;50.974;13.936;2023-03-15T12:05:52;100068.56;;;5.05;100.00
28310;BME280;15571;50.974;13.936;2023-03-15T12:12:34;100066.03;;;5.08;100.00
28310;BME280;15571;50.974;13.936;2023-03-15T12:15:43;100062.47;;;5.05;100.00
28310;BME280;15571;50.974;13.936;2023-03-15T12:18:49;100060.78;;;5.07;100.00
28310;BME280;15571;50.974;13.936;2023-03-15T12:21:56;100062.53;;;5.08;100.00
28310;BME280;15571;50.974;13.936;2023-03-15T12:25:01;100065.91;;;5.02;100.00
28310;BME280;15571;50.974;13.936;2023-03-15T12:28:07;100065.19;;;5.11;100.00
28310;BME280;15571;50.974;13.936;2023-03-15T12:31:12;100066.09;;;5.13;100.00
28310;BME280;15571;50.974;13.936;2023-03-15T12:34:27;100069.59;;;5.20;100.00
28310;BME280;15571;50.974;13.936;2023-03-15T12:37:37;100060.19;;;5.23;100.00
28310;BME280;15571;50.974;13.936;2023-03-15T12:40:50;100066.28;;;5.30;100.00
28310;BME280;15571;50.974;13.936;2023-03-15T12:44:04;100065.50;;;5.36;100.00
28310;BME280;15571;50.974;13.936;2023-03-15T12:47:20;100064.81;;;5.49;100.00
28310;BME280;15571;50.974;13.936;2023-03-15T12:50:35;100067.38;;;5.46;100.00
28310;BME280;15571;50.974;13.936;2023-03-15T12:53:45;100064.94;;;5.57;100.00
28310;BME280;15571;50.974;13.936;2023-03-15T12:56:51;100073.69;;;5.67;100.00
28310;BME280;15571;50.974;13.936;2023-03-15T12:59:59;100071.09;;;5.67;100.00
28310;BME280;15571;50.974;13.936;2023-03-15T13:03:14;100082.31;;;5.64;100.00
28310;BME280;15571;50.974;13.936;2023-03-15T13:06:27;100073.56;;;5.56;100.00
28310;BME280;15571;50.974;13.936;2023-03-15T13:13:12;100083.13;;;5.60;100.00
28310;BME280;15571;50.974;13.936;2023-03-15T13:16:22;100075.38;;;5.65;100.00
28310;BME280;15571;50.974;13.936;2023-03-15T13:19:43;100076.28;;;5.68;100.00
28310;BME280;15571;50.974;13.936;2023-03-15T13:22:49;100084.13;;;5.70;100.00
28310;BME280;15571;50.974;13.936;2023-03-15T13:26:02;100081.53;;;5.71;100.00
28310;BME280;15571;50.974;13.936;2023-03-15T13:29:13;100079.78;;;5.70;100.00
28310;BME280;15571;50.974;13.936;2023-03-15T13:32:21;100086.69;;;5.68;100.00
28310;BME280;15571;50.974;13.936;2023-03-15T13:35:52;100084.97;;;5.70;100.00
28310;BME280;15571;50.974;13.936;2023-03-15T13:38:56;100076.34;;;5.71;100.00
28310;BME280;15571;50.974;13.936;2023-03-15T13:42:02;100085.03;;;5.73;100.00
28310;BME280;15571;50.974;13.936;2023-03-15T13:45:12;100088.53;;;5.75;100.00
28310;BME280;15571;50.974;13.936;2023-03-15T13:48:16;100086.81;;;5.79;100.00
28310;BME280;15571;50.974;13.936;2023-03-15T13:51:21;100090.28;;;5.76;100.00
28310;BME280;15571;50.974;13.936;2023-03-15T13:54:26;100098.94;;;5.79;100.00
28310;BME280;15571;50.974;13.936;2023-03-15T13:57:36;100093.72;;;5.79;100.00
28310;BME280;15571;50.974;13.936;2023-03-15T14:00:42;100092.88;;;5.78;100.00
28310;BME280;15571;50.974;13.936;2023-03-15T14:03:46;100092.88;;;5.80;100.00
28310;BME280;15571;50.974;13.936;2023-03-15T14:07:06;100100.72;;;5.83;100.00
28310;BME280;15571;50.974;13.936;2023-03-15T14:10:24;100099.88;;;5.82;100.00
28310;BME280;15571;50.974;13.936;2023-03-15T14:13:31;100098.13;;;5.83;100.00
28310;BME280;15571;50.974;13.936;2023-03-15T14:16:39;100092.03;;;5.81;100.00
28310;BME280;15571;50.974;13.936;2023-03-15T14:19:50;100103.31;;;5.83;100.00
28310;BME280;15571;50.974;13.936;2023-03-15T14:22:57;100100.78;;;5.89;100.00
28310;BME280;15571;50.974;13.936;2023-03-15T14:26:05;100096.47;;;5.91;100.00
28310;BME280;15571;50.974;13.936;2023-03-15T14:29:16;100095.69;;;5.95;100.00
28310;BME280;15571;50.974;13.936;2023-03-15T14:32:24;100094.81;;;5.98;100.00
28310;BME280;15571;50.974;13.936;2023-03-15T14:35:31;100101.81;;;6.00;100.00
28310;BME280;15571;50.974;13.936;2023-03-15T14:38:48;100108.75;;;6.01;100.00
28310;BME280;15571;50.974;13.936;2023-03-15T14:41:51;100119.97;;;5.99;100.00
28310;BME280;15571;50.974;13.936;2023-03-15T14:45:01;100124.22;;;5.93;100.00
28310;BME280;15571;50.974;13.936;2023-03-15T14:48:07;100126.75;;;5.86;100.00
28310;BME280;15571;50.974;13.936;2023-03-15T14:51:15;100119.59;;;5.69;100.00
28310;BME280;15571;50.974;13.936;2023-03-15T14:54:21;100122.00;;;5.54;100.00
28310;BME280;15571;50.974;13.936;2023-03-15T14:57:34;100115.06;;;5.54;100.00
28310;BME280;15571;50.974;13.936;2023-03-15T15:00:36;100117.72;;;5.59;100.00
28310;BME280;15571;50.974;13.936;2023-03-15T15:03:40;100122.91;;;5.59;100.00
28310;BME280;15571;50.974;13.936;2023-03-15T15:06:47;100119.53;;;5.63;100.00
28310;BME280;15571;50.974;13.936;2023-03-15T15:09:53;100116.13;;;5.69;100.00
28310;BME280;15571;50.974;13.936;2023-03-15T15:13:02;100115.34;;;5.74;100.00
28310;BME280;15571;50.974;13.936;2023-03-15T15:16:07;100118.84;;;5.76;100.00
28310;BME280;15571;50.974;13.936;2023-03-15T15:19:09;100120.59;;;5.78;100.00
28310;BME280;15571;50.974;13.936;2023-03-15T15:22:14;100125.78;;;5.79;100.00
28310;BME280;15571;50.974;13.936;2023-03-15T15:25:21;100124.88;;;5.75;100.00
28310;BME280;15571;50.974;13.936;2023-03-15T15:28:28;100124.00;;;5.75;100.00
28310;BME280;15571;50.974;13.936;2023-03-15T15:31:33;100116.25;;;5.80;100.00
28310;BME280;15571;50.974;13.936;2023-03-15T15:34:35;100120.66;;;5.82;100.00
28310;BME280;15571;50.974;13.936;2023-03-15T15:37:40;100123.28;;;5.87;100.00
28310;BME280;15571;50.974;13.936;2023-03-15T15:40:51;100131.97;;;5.89;100.00
28310;BME280;15571;50.974;13.936;2023-03-15T15:43:59;100130.25;;;5.91;100.00
28310;BME280;15571;50.974;13.936;2023-03-15T15:47:07;100131.09;;;5.90;100.00
28310;BME280;15571;50.974;13.936;2023-03-15T15:50:13;100137.16;;;5.89;100.00
28310;BME280;15571;50.974;13.936;2023-03-15T15:53:17;100139.78;;;5.92;100.00
28310;BME280;15571;50.974;13.936;2023-03-15T15:56:29;100138.94;;;5.93;100.00
28310;BME280;15571;50.974;13.936;2023-03-15T15:59:34;100138.09;;;5.92;100.00
28310;BME280;15571;50.974;13.936;2023-03-15T16:02:39;100145.00;;;5.93;100.00
28310;BME280;15571;50.974;13.936;2023-03-15T16:05:42;100154.53;;;5.95;100.00
28310;BME280;15571;50.974;13.936;2023-03-15T16:08:58;100147.66;;;5.98;100.00
28310;BME280;15571;50.974;13.936;2023-03-15T16:12:08;100159.03;;;6.03;100.00
28310;BME280;15571;50.974;13.936;2023-03-15T16:15:14;100163.31;;;6.00;100.00
28310;BME280;15571;50.974;13.936;2023-03-15T16:18:20;100165.06;;;6.02;100.00
28310;BME280;15571;50.974;13.936;2023-03-15T16:21:27;100168.53;;;6.01;100.00
28310;BME280;15571;50.974;13.936;2023-03-15T16:24:35;100181.34;;;5.90;100.00
28310;BME280;15571;50.974;13.936;2023-03-15T16:27:43;100186.50;;;5.86;100.00
28310;BME280;15571;50.974;13.936;2023-03-15T16:30:48;100190.75;;;5.81;100.00
28310;BME280;15571;50.974;13.936;2023-03-15T16:33:57;100196.66;;;5.69;100.00
28310;BME280;15571;50.974;13.936;2023-03-15T16:37:05;100204.38;;;5.66;100.00